createdAt,value
2023-03-29T00:02:30.161Z,1.70
2023-03-29T00:05:02.018Z,1.40
2023-03-29T00:07:30.212Z,1.30
2023-03-29T00:09:56.842Z,1.60
2023-03-29T00:12:23.306Z,1.50
2023-03-29T00:14:49.876Z,1.30
2023-03-29T00:17:16.860Z,1.60
2023-03-29T00:19:44.771Z,1.40
2023-03-29T00:22:11.706Z,1.50
2023-03-29T00:24:38.278Z,1.40
2023-03-29T00:27:05.701Z,1.30
2023-03-29T00:29:32.461Z,1.10
2023-03-29T00:31:59.535Z,1.70
2023-03-29T00:34:30.927Z,1.80
2023-03-29T00:36:58.486Z,1.80
2023-03-29T00:39:27.994Z,1.60
2023-03-29T00:41:54.680Z,1.40
2023-03-29T00:44:58.784Z,1.70
2023-03-29T00:47:45.483Z,1.60
2023-03-29T00:50:16.781Z,1.60
2023-03-29T00:52:48.681Z,1.30
2023-03-29T00:55:19.708Z,1.80
2023-03-29T00:57:47.247Z,1.80
2023-03-29T01:00:20.970Z,1.70
2023-03-29T01:02:54.455Z,1.60
2023-03-29T01:05:34.756Z,1.90
2023-03-29T01:08:08.957Z,1.70
2023-03-29T01:11:02.951Z,1.80
2023-03-29T01:13:42.280Z,1.60
2023-03-29T01:16:11.642Z,1.60
2023-03-29T01:18:38.396Z,1.80
2023-03-29T01:21:14.773Z,2.00
2023-03-29T01:23:54.644Z,1.70
2023-03-29T01:26:41.379Z,2.10
2023-03-29T01:29:15.344Z,1.80
2023-03-29T01:31:47.603Z,1.70
2023-03-29T01:34:28.553Z,1.80
2023-03-29T01:37:04.570Z,1.50
2023-03-29T01:39:34.479Z,1.60
2023-03-29T01:42:24.123Z,1.60
2023-03-29T01:44:56.651Z,1.70
2023-03-29T01:47:36.481Z,1.90
2023-03-29T01:50:16.283Z,1.90
2023-03-29T01:52:56.915Z,2.00
2023-03-29T01:55:36.070Z,2.00
2023-03-29T01:58:05.219Z,2.00
2023-03-29T02:00:34.812Z,2.20
2023-03-29T02:03:06.935Z,1.80
2023-03-29T02:05:35.809Z,2.60
2023-03-29T02:08:05.410Z,2.20
2023-03-29T02:10:34.150Z,2.10
2023-03-29T02:13:00.983Z,2.40
2023-03-29T02:15:28.199Z,2.10
2023-03-29T02:17:56.779Z,2.30
2023-03-29T02:20:32.102Z,2.30
2023-03-29T02:23:15.558Z,2.30
2023-03-29T02:25:45.668Z,2.30
2023-03-29T02:28:13.056Z,2.40
2023-03-29T02:31:26.142Z,2.60
2023-03-29T02:33:53.071Z,2.20
2023-03-29T02:36:34.439Z,2.30
2023-03-29T02:39:04.957Z,2.10
2023-03-29T02:41:32.720Z,2.60
2023-03-29T02:44:01.222Z,2.40
2023-03-29T02:46:28.260Z,2.40
2023-03-29T02:48:56.140Z,2.30
2023-03-29T02:51:28.824Z,2.50
2023-03-29T02:54:15.512Z,2.30
2023-03-29T02:56:48.390Z,2.50
2023-03-29T02:59:17.709Z,2.50
2023-03-29T03:01:44.889Z,2.50
2023-03-29T03:04:13.430Z,2.50
2023-03-29T03:06:40.326Z,2.40
2023-03-29T03:09:07.669Z,2.70
2023-03-29T03:11:34.228Z,3.10
2023-03-29T03:14:00.979Z,3.10
2023-03-29T03:16:28.102Z,2.70
2023-03-29T03:18:55.650Z,2.80
2023-03-29T03:21:22.999Z,2.90
2023-03-29T03:23:49.870Z,3.20
2023-03-29T03:26:18.007Z,3.20
2023-03-29T03:28:45.772Z,3.10
2023-03-29T03:31:15.626Z,3.40
2023-03-29T03:33:42.296Z,3.30
2023-03-29T03:36:10.830Z,2.90
2023-03-29T03:38:38.767Z,3.60
2023-03-29T03:41:09.804Z,3.30
2023-03-29T03:43:36.457Z,3.50
2023-03-29T03:46:03.339Z,3.40
2023-03-29T03:48:30.361Z,3.40
2023-03-29T03:50:59.135Z,3.90
2023-03-29T03:53:27.406Z,3.70
2023-03-29T03:55:58.025Z,3.80
2023-03-29T03:58:24.768Z,3.90
2023-03-29T04:00:51.836Z,4.00
2023-03-29T04:03:18.643Z,4.10
2023-03-29T04:05:46.443Z,4.10
2023-03-29T04:08:14.164Z,4.00
2023-03-29T04:10:40.931Z,3.80
2023-03-29T04:13:07.750Z,4.10
2023-03-29T04:15:38.775Z,3.90
2023-03-29T04:18:07.701Z,4.10
2023-03-29T04:20:35.177Z,4.10
2023-03-29T04:23:01.961Z,4.70
2023-03-29T04:25:29.642Z,4.20
2023-03-29T04:27:56.625Z,4.50
2023-03-29T04:30:23.643Z,4.00
2023-03-29T04:32:50.490Z,4.60
2023-03-29T04:35:17.881Z,4.50
2023-03-29T04:37:44.403Z,4.20
2023-03-29T04:40:14.347Z,4.30
2023-03-29T04:42:45.932Z,4.20
2023-03-29T04:45:18.089Z,4.20
2023-03-29T04:47:46.057Z,4.50
2023-03-29T04:50:14.124Z,4.30
2023-03-29T04:52:41.465Z,4.20
2023-03-29T04:55:09.387Z,4.20
2023-03-29T04:57:36.087Z,4.50
2023-03-29T05:00:08.321Z,4.60
2023-03-29T05:02:35.145Z,4.10
2023-03-29T05:05:01.603Z,4.00
2023-03-29T05:07:28.093Z,4.20
2023-03-29T05:09:54.643Z,4.20
2023-03-29T05:12:21.498Z,4.30
2023-03-29T05:14:48.007Z,4.30
2023-03-29T05:17:14.500Z,4.20
2023-03-29T05:19:41.434Z,4.30
2023-03-29T05:22:08.901Z,4.30
2023-03-29T05:24:35.652Z,4.80
2023-03-29T05:27:02.479Z,3.40
2023-03-29T05:29:29.044Z,4.30
2023-03-29T05:31:55.817Z,4.70
2023-03-29T05:34:22.441Z,4.70
2023-03-29T05:36:49.186Z,4.50
2023-03-29T05:39:15.865Z,4.30
2023-03-29T05:41:42.694Z,4.50
2023-03-29T05:44:09.298Z,4.70
2023-03-29T05:46:38.770Z,4.60
2023-03-29T05:49:06.447Z,4.50
2023-03-29T05:51:33.354Z,4.40
2023-03-29T05:53:59.924Z,4.70
2023-03-29T05:56:26.998Z,4.80
2023-03-29T05:58:56.912Z,4.80
2023-03-29T06:01:24.639Z,4.90
2023-03-29T06:03:52.130Z,5.00
2023-03-29T06:06:19.187Z,5.40
2023-03-29T06:08:46.417Z,5.00
2023-03-29T06:11:13.494Z,5.40
2023-03-29T06:13:41.534Z,5.00
2023-03-29T06:16:10.060Z,5.70
2023-03-29T06:18:40.015Z,4.90
2023-03-29T06:21:09.289Z,5.00
2023-03-29T06:23:36.474Z,5.50
2023-03-29T06:26:04.509Z,5.40
2023-03-29T06:28:31.082Z,6.00
2023-03-29T06:31:02.834Z,5.50
2023-03-29T06:33:30.892Z,5.40
2023-03-29T06:35:57.691Z,4.90
2023-03-29T06:38:26.796Z,4.90
2023-03-29T06:41:01.161Z,4.80
2023-03-29T06:43:27.897Z,5.00
2023-03-29T06:45:54.973Z,5.50
2023-03-29T06:48:21.671Z,4.90
2023-03-29T06:50:49.296Z,5.10
2023-03-29T06:53:17.078Z,4.70
2023-03-29T06:55:43.843Z,5.20
2023-03-29T06:58:11.090Z,4.60
2023-03-29T07:00:39.229Z,4.60
2023-03-29T07:03:09.814Z,4.80
2023-03-29T07:05:40.721Z,4.30
2023-03-29T07:08:07.614Z,4.80
2023-03-29T07:10:47.431Z,4.90
2023-03-29T07:13:15.541Z,4.30
2023-03-29T07:15:43.486Z,4.20
2023-03-29T07:18:11.038Z,4.10
2023-03-29T07:20:38.679Z,3.70
2023-03-29T07:23:05.937Z,4.40
2023-03-29T07:25:34.172Z,4.10
2023-03-29T07:28:00.943Z,4.10
2023-03-29T07:30:31.619Z,4.20
2023-03-29T07:32:59.555Z,4.30
2023-03-29T07:35:28.267Z,4.20
2023-03-29T07:37:55.889Z,4.00
2023-03-29T07:40:26.522Z,3.90
2023-03-29T07:42:56.794Z,4.20
2023-03-29T07:45:27.541Z,3.80
2023-03-29T07:47:59.506Z,4.20
2023-03-29T07:50:32.589Z,3.90
2023-03-29T07:53:00.868Z,3.80
2023-03-29T07:55:27.517Z,4.00
2023-03-29T07:57:54.214Z,3.80
2023-03-29T08:00:22.425Z,3.80
2023-03-29T08:02:52.356Z,4.30
2023-03-29T08:05:37.951Z,4.10
2023-03-29T08:08:09.769Z,3.90
2023-03-29T08:10:39.123Z,3.70
2023-03-29T08:13:08.462Z,4.20
2023-03-29T08:15:37.914Z,4.00
2023-03-29T08:18:05.285Z,3.80
2023-03-29T08:20:32.845Z,3.80
2023-03-29T08:22:59.504Z,4.30
2023-03-29T08:25:26.047Z,4.10
2023-03-29T08:27:53.459Z,3.80
2023-03-29T08:30:20.004Z,4.00
2023-03-29T08:32:50.396Z,3.80
2023-03-29T08:35:18.297Z,3.80
2023-03-29T08:37:44.765Z,4.40
2023-03-29T08:40:26.341Z,3.50
2023-03-29T08:43:08.326Z,4.10
2023-03-29T08:45:38.945Z,4.00
2023-03-29T08:48:05.397Z,3.80
2023-03-29T08:50:39.218Z,4.30
2023-03-29T08:53:12.639Z,3.80
2023-03-29T08:55:59.967Z,4.40
2023-03-29T08:58:32.149Z,4.20
2023-03-29T09:01:00.797Z,3.80
2023-03-29T09:03:48.484Z,4.20
2023-03-29T09:06:19.491Z,3.80
2023-03-29T09:08:49.094Z,3.90
2023-03-29T09:11:27.456Z,3.70
2023-03-29T09:14:14.872Z,3.80
2023-03-29T09:16:56.431Z,3.90
2023-03-29T09:20:01.324Z,3.60
2023-03-29T09:22:41.797Z,4.30
2023-03-29T09:25:24.205Z,4.10
2023-03-29T09:28:25.429Z,3.60
2023-03-29T09:31:00.212Z,3.90
2023-03-29T09:33:37.263Z,3.80
2023-03-29T09:36:23.672Z,3.90
2023-03-29T09:38:54.394Z,3.80
2023-03-29T09:41:34.592Z,4.20
2023-03-29T09:44:10.891Z,4.20
2023-03-29T09:46:56.062Z,4.00
2023-03-29T09:49:28.583Z,4.20
2023-03-29T09:51:59.684Z,3.70
2023-03-29T09:54:26.520Z,4.10
2023-03-29T09:56:53.582Z,4.10
2023-03-29T09:59:21.258Z,4.00
2023-03-29T10:01:48.223Z,3.80
2023-03-29T10:04:16.805Z,3.50
2023-03-29T10:06:49.535Z,3.90
2023-03-29T10:09:24.647Z,4.30
2023-03-29T10:11:57.673Z,4.10
2023-03-29T10:14:46.499Z,4.00
2023-03-29T10:17:21.932Z,4.00
2023-03-29T10:19:55.673Z,4.00
2023-03-29T10:22:24.532Z,3.60
2023-03-29T10:24:53.192Z,3.90
2023-03-29T10:27:26.092Z,4.10
2023-03-29T10:29:54.077Z,3.60
2023-03-29T10:32:28.565Z,3.40
2023-03-29T10:34:59.515Z,3.60
2023-03-29T10:37:28.392Z,3.30
2023-03-29T10:39:55.052Z,3.00
2023-03-29T10:42:24.905Z,3.40
2023-03-29T10:45:00.121Z,3.50
2023-03-29T10:47:34.406Z,3.50
2023-03-29T10:50:01.905Z,3.70
2023-03-29T10:52:29.776Z,3.50
2023-03-29T10:54:57.068Z,3.10
2023-03-29T10:57:40.854Z,3.30
2023-03-29T11:00:39.788Z,3.50
2023-03-29T11:03:44.770Z,3.70
2023-03-29T11:06:28.365Z,3.80
2023-03-29T11:09:40.143Z,3.30
2023-03-29T11:12:28.478Z,3.80
2023-03-29T11:15:11.191Z,4.50
2023-03-29T11:17:53.398Z,5.00
2023-03-29T11:20:24.325Z,4.30
2023-03-29T11:23:00.294Z,4.70
2023-03-29T11:25:42.403Z,4.00
2023-03-29T11:28:25.023Z,4.30
2023-03-29T11:31:01.221Z,4.90
2023-03-29T11:33:43.989Z,4.30
2023-03-29T11:36:13.318Z,4.00
2023-03-29T11:39:00.769Z,4.20
2023-03-29T11:41:38.487Z,4.00
2023-03-29T11:44:30.358Z,5.00
2023-03-29T11:47:23.136Z,4.50
2023-03-29T11:50:32.169Z,4.30
2023-03-29T11:53:08.569Z,4.60
2023-03-29T11:55:38.568Z,5.00
2023-03-29T11:58:22.442Z,4.70
2023-03-29T12:00:55.748Z,5.20
2023-03-29T12:03:41.126Z,4.50
2023-03-29T12:06:18.998Z,4.70
2023-03-29T12:09:01.335Z,4.60
2023-03-29T12:11:38.783Z,4.70
2023-03-29T12:14:13.103Z,4.60
2023-03-29T12:17:01.028Z,4.60
2023-03-29T12:19:39.659Z,4.10
2023-03-29T12:22:09.234Z,4.60
2023-03-29T12:24:40.022Z,3.90
2023-03-29T12:27:27.349Z,4.60
2023-03-29T12:30:13.974Z,4.20
2023-03-29T12:32:59.103Z,3.70
2023-03-29T12:35:48.725Z,4.00
2023-03-29T12:38:25.452Z,3.70
2023-03-29T12:41:00.774Z,3.70
2023-03-29T12:43:31.064Z,3.60
2023-03-29T12:46:27.671Z,3.60
2023-03-29T12:49:33.603Z,3.70
2023-03-29T12:52:03.569Z,3.20
2023-03-29T12:54:33.742Z,3.60
2023-03-29T12:57:18.405Z,3.30
2023-03-29T12:59:53.931Z,3.30
2023-03-29T13:02:35.296Z,4.10
2023-03-29T13:05:04.726Z,3.80
2023-03-29T13:07:45.533Z,3.70
2023-03-29T13:10:34.399Z,3.80
2023-03-29T13:13:11.918Z,3.60
2023-03-29T13:15:39.296Z,3.50
2023-03-29T13:18:26.383Z,3.60
2023-03-29T13:21:13.012Z,3.80
2023-03-29T13:23:59.264Z,3.90
2023-03-29T13:26:45.273Z,4.40
2023-03-29T13:29:43.400Z,3.10
2023-03-29T13:32:28.463Z,3.70
2023-03-29T13:35:12.998Z,3.20
2023-03-29T13:38:22.965Z,3.40
2023-03-29T13:40:52.934Z,3.90
2023-03-29T13:43:19.402Z,5.00
2023-03-29T13:46:16.681Z,4.90
2023-03-29T13:48:43.219Z,4.30
2023-03-29T13:51:18.552Z,6.10
2023-03-29T13:54:01.196Z,4.90
2023-03-29T13:56:34.854Z,4.60
2023-03-29T13:59:13.526Z,4.90
2023-03-29T14:01:50.592Z,5.20
2023-03-29T14:04:24.838Z,4.40
2023-03-29T14:06:55.708Z,4.70
2023-03-29T14:09:28.154Z,4.30
2023-03-29T14:11:55.432Z,4.60
2023-03-29T14:14:25.513Z,4.00
2023-03-29T14:16:55.929Z,4.10
2023-03-29T14:19:34.280Z,4.50
2023-03-29T14:22:02.090Z,4.10
2023-03-29T14:24:37.245Z,4.60
2023-03-29T14:27:06.050Z,4.20
2023-03-29T14:29:34.175Z,4.00
2023-03-29T14:32:12.578Z,4.20
2023-03-29T14:34:40.512Z,3.40
2023-03-29T14:37:09.090Z,2.80
2023-03-29T14:39:36.454Z,3.00
2023-03-29T14:42:03.831Z,3.40
2023-03-29T14:44:33.243Z,3.20
2023-03-29T14:47:01.547Z,3.60
2023-03-29T14:49:29.220Z,2.90
2023-03-29T14:51:56.670Z,3.20
2023-03-29T14:54:28.869Z,2.90
2023-03-29T14:56:55.981Z,2.90
2023-03-29T14:59:36.629Z,2.90
2023-03-29T15:02:04.413Z,2.30
2023-03-29T15:04:35.981Z,2.80
2023-03-29T15:07:04.976Z,2.80
2023-03-29T15:09:34.681Z,2.60
2023-03-29T15:12:03.449Z,2.50
2023-03-29T15:14:37.960Z,2.70
2023-03-29T15:17:51.078Z,2.90
2023-03-29T15:20:24.137Z,3.50
2023-03-29T15:23:04.627Z,3.50
2023-03-29T15:25:39.361Z,3.50
2023-03-29T15:28:06.325Z,3.40
2023-03-29T15:30:39.451Z,3.90
2023-03-29T15:33:25.353Z,3.90
2023-03-29T15:35:54.234Z,4.00
2023-03-29T15:38:27.491Z,4.10
2023-03-29T15:41:01.341Z,4.50
2023-03-29T15:43:28.246Z,5.00
2023-03-29T15:45:56.046Z,5.20
2023-03-29T15:48:26.421Z,5.10
2023-03-29T15:50:53.619Z,5.20
2023-03-29T15:53:21.850Z,4.80
2023-03-29T15:55:52.227Z,5.60
2023-03-29T15:58:24.569Z,5.20
2023-03-29T16:00:59.240Z,5.40
2023-03-29T16:03:29.037Z,5.60
2023-03-29T16:05:56.957Z,5.90
2023-03-29T16:08:25.096Z,5.70
2023-03-29T16:10:51.864Z,6.00
2023-03-29T16:13:18.492Z,6.10
2023-03-29T16:15:46.215Z,5.50
2023-03-29T16:18:12.724Z,6.30
2023-03-29T16:20:39.558Z,6.40
2023-03-29T16:23:09.444Z,6.50
2023-03-29T16:25:38.505Z,6.20
2023-03-29T16:28:06.416Z,6.40
2023-03-29T16:30:33.494Z,6.60
2023-03-29T16:33:01.192Z,6.80
2023-03-29T16:35:31.078Z,6.70
2023-03-29T16:37:58.018Z,7.40
2023-03-29T16:40:25.136Z,7.00
2023-03-29T16:42:51.939Z,7.20
2023-03-29T16:45:19.625Z,7.10
2023-03-29T16:47:46.586Z,6.10
2023-03-29T16:50:16.236Z,6.60
2023-03-29T16:52:42.796Z,7.10
2023-03-29T16:55:15.149Z,7.00
2023-03-29T16:57:42.366Z,6.90
2023-03-29T17:00:16.390Z,7.00
2023-03-29T17:02:43.821Z,6.80
2023-03-29T17:05:11.901Z,7.00
2023-03-29T17:07:39.400Z,7.40
2023-03-29T17:10:10.650Z,7.20
2023-03-29T17:12:37.273Z,7.00
2023-03-29T17:15:05.672Z,6.70
2023-03-29T17:17:32.218Z,6.80
2023-03-29T17:19:58.736Z,7.20
2023-03-29T17:22:25.704Z,8.00
2023-03-29T17:24:52.547Z,7.50
2023-03-29T17:27:19.168Z,7.70
2023-03-29T17:29:45.898Z,7.80
2023-03-29T17:32:12.674Z,7.50
2023-03-29T17:34:39.292Z,7.70
2023-03-29T17:37:06.183Z,7.20
2023-03-29T17:39:37.527Z,7.40
2023-03-29T17:42:05.375Z,7.50
2023-03-29T17:44:33.331Z,7.40
2023-03-29T17:47:01.034Z,8.20
2023-03-29T17:49:28.056Z,7.30
2023-03-29T17:51:54.810Z,7.20
2023-03-29T17:54:21.435Z,8.20
2023-03-29T17:56:47.888Z,7.40
2023-03-29T17:59:14.527Z,7.60
2023-03-29T18:01:41.669Z,8.00
2023-03-29T18:04:08.313Z,8.00
2023-03-29T18:06:35.299Z,8.50
2023-03-29T18:09:01.744Z,8.40
2023-03-29T18:11:29.132Z,8.30
2023-03-29T18:13:59.208Z,8.60
2023-03-29T18:16:26.636Z,9.60
2023-03-29T18:18:53.229Z,9.90
2023-03-29T18:21:20.146Z,10.30
2023-03-29T18:23:48.191Z,9.10
2023-03-29T18:26:16.336Z,10.00
2023-03-29T18:28:47.048Z,10.10
2023-03-29T18:31:14.238Z,10.20
2023-03-29T18:33:40.847Z,8.90
2023-03-29T18:36:11.977Z,9.50
2023-03-29T18:38:40.692Z,9.30
2023-03-29T18:41:08.547Z,9.60
2023-03-29T18:43:35.954Z,9.20
2023-03-29T18:46:03.521Z,9.40
2023-03-29T18:48:31.221Z,9.20
2023-03-29T18:50:58.465Z,9.40
2023-03-29T18:53:25.188Z,8.90
2023-03-29T18:55:51.790Z,9.10
2023-03-29T18:58:20.410Z,9.60
2023-03-29T19:00:47.024Z,9.10
2023-03-29T19:03:13.670Z,9.40
2023-03-29T19:05:41.046Z,9.70
2023-03-29T19:08:08.984Z,9.70
2023-03-29T19:10:39.975Z,9.80
2023-03-29T19:13:06.595Z,10.70
2023-03-29T19:15:34.662Z,10.60
2023-03-29T19:18:01.656Z,11.30
2023-03-29T19:20:29.397Z,10.00
2023-03-29T19:22:56.461Z,10.00
2023-03-29T19:25:23.099Z,9.80
2023-03-29T19:27:50.348Z,10.20
2023-03-29T19:30:18.321Z,9.00
2023-03-29T19:32:44.999Z,9.60
2023-03-29T19:35:12.794Z,9.50
2023-03-29T19:37:39.933Z,9.80
2023-03-29T19:40:08.340Z,9.50
2023-03-29T19:42:37.433Z,10.00
2023-03-29T19:45:06.153Z,10.10
2023-03-29T19:47:32.993Z,9.80
2023-03-29T19:50:00.417Z,9.40
2023-03-29T19:52:28.377Z,9.90
2023-03-29T19:54:56.656Z,9.00
2023-03-29T19:57:24.035Z,9.20
2023-03-29T19:59:52.996Z,9.20
2023-03-29T20:02:19.597Z,9.20
2023-03-29T20:04:46.366Z,8.70
2023-03-29T20:07:13.063Z,9.30
2023-03-29T20:09:39.633Z,8.60
2023-03-29T20:12:06.336Z,9.10
2023-03-29T20:14:34.306Z,8.70
2023-03-29T20:17:01.019Z,8.80
2023-03-29T20:19:27.728Z,8.60
2023-03-29T20:21:58.238Z,10.90
2023-03-29T20:24:25.929Z,10.40
2023-03-29T20:26:52.886Z,10.50
2023-03-29T20:29:19.490Z,9.50
2023-03-29T20:31:47.047Z,8.80
2023-03-29T20:34:13.762Z,9.20
2023-03-29T20:36:40.497Z,8.80
2023-03-29T20:39:08.246Z,8.60
2023-03-29T20:41:38.350Z,9.20
2023-03-29T20:44:05.619Z,8.90
2023-03-29T20:46:35.893Z,10.80
2023-03-29T20:49:05.024Z,12.70
2023-03-29T20:51:34.746Z,10.20
2023-03-29T20:54:04.710Z,9.50
2023-03-29T20:56:33.953Z,8.70
2023-03-29T20:59:00.879Z,8.50
2023-03-29T21:01:29.476Z,8.40
2023-03-29T21:03:56.496Z,8.50
2023-03-29T21:06:24.386Z,8.90
2023-03-29T21:08:52.563Z,8.90
2023-03-29T21:11:21.011Z,9.40
2023-03-29T21:13:47.623Z,9.00
2023-03-29T21:16:14.173Z,9.10
2023-03-29T21:18:41.620Z,9.00
2023-03-29T21:21:09.667Z,9.20
2023-03-29T21:23:37.222Z,9.00
2023-03-29T21:26:07.357Z,8.60
2023-03-29T21:28:33.840Z,8.90
2023-03-29T21:31:04.960Z,7.90
2023-03-29T21:33:32.362Z,7.50
2023-03-29T21:35:58.904Z,7.70
2023-03-29T21:38:25.670Z,7.60
2023-03-29T21:40:52.415Z,7.20
2023-03-29T21:43:18.870Z,6.40
2023-03-29T21:45:49.883Z,5.90
2023-03-29T21:48:17.078Z,6.30
2023-03-29T21:50:44.021Z,6.60
2023-03-29T21:53:10.626Z,7.20
2023-03-29T21:55:37.515Z,7.10
2023-03-29T21:58:04.736Z,7.00
2023-03-29T22:00:32.014Z,7.10
2023-03-29T22:02:58.697Z,7.00
2023-03-29T22:05:26.389Z,6.70
2023-03-29T22:07:52.977Z,6.40
2023-03-29T22:10:22.859Z,6.60
2023-03-29T22:12:51.125Z,6.70
2023-03-29T22:15:20.704Z,6.70
2023-03-29T22:17:48.165Z,6.50
2023-03-29T22:20:15.441Z,6.50
2023-03-29T22:22:49.777Z,6.50
2023-03-29T22:25:18.013Z,6.50
2023-03-29T22:27:46.948Z,6.20
2023-03-29T22:30:15.007Z,6.10
2023-03-29T22:32:42.453Z,6.70
2023-03-29T22:35:09.754Z,7.10
2023-03-29T22:37:45.813Z,7.20
2023-03-29T22:40:13.222Z,7.30
2023-03-29T22:42:39.812Z,7.30
2023-03-29T22:45:07.413Z,7.30
2023-03-29T22:47:35.379Z,7.20
2023-03-29T22:50:02.097Z,7.10
2023-03-29T22:52:28.634Z,7.10
2023-03-29T22:54:55.320Z,7.40
2023-03-29T22:57:21.874Z,7.30
2023-03-29T22:59:48.434Z,6.80
2023-03-29T23:02:14.873Z,7.30
2023-03-29T23:04:42.276Z,7.30
2023-03-29T23:07:09.171Z,6.80
2023-03-29T23:09:35.637Z,7.30
2023-03-29T23:12:02.166Z,7.30
2023-03-29T23:14:28.626Z,7.40
2023-03-29T23:16:55.064Z,7.50
2023-03-29T23:19:21.501Z,7.90
2023-03-29T23:21:48.011Z,7.30
2023-03-29T23:24:18.836Z,8.00
2023-03-29T23:26:45.689Z,7.70
2023-03-29T23:29:12.444Z,7.80
2023-03-29T23:31:38.982Z,7.80
2023-03-29T23:34:05.483Z,8.00
2023-03-29T23:36:31.998Z,7.90
2023-03-29T23:38:59.571Z,8.40
2023-03-29T23:41:28.385Z,7.50
2023-03-29T23:43:57.545Z,7.40
2023-03-29T23:46:24.673Z,8.00
2023-03-29T23:48:52.285Z,7.50
2023-03-29T23:51:23.010Z,7.60
2023-03-29T23:53:49.957Z,7.80
2023-03-29T23:56:16.372Z,7.90
2023-03-29T23:58:42.893Z,7.50
